createdAt,value
2023-03-03T00:02:25.337Z,2.65
2023-03-03T00:04:55.807Z,2.67
2023-03-03T00:07:26.107Z,2.70
2023-03-03T00:09:58.332Z,2.74
2023-03-03T00:12:31.440Z,2.78
2023-03-03T00:15:04.429Z,2.86
2023-03-03T00:17:35.401Z,2.91
2023-03-03T00:20:30.775Z,2.98
2023-03-03T00:23:18.730Z,3.06
2023-03-03T00:25:53.590Z,3.14
2023-03-03T00:28:29.242Z,3.17
2023-03-03T00:31:05.149Z,3.25
2023-03-03T00:33:37.738Z,3.26
2023-03-03T00:36:35.793Z,3.26
2023-03-03T00:39:31.472Z,3.25
2023-03-03T00:42:04.454Z,3.32
2023-03-03T00:44:46.006Z,3.34
2023-03-03T00:47:32.016Z,3.37
2023-03-03T00:50:31.607Z,3.40
2023-03-03T00:53:09.566Z,3.42
2023-03-03T00:55:40.611Z,3.44
2023-03-03T00:58:11.035Z,3.44
2023-03-03T01:00:48.160Z,3.47
2023-03-03T01:03:27.340Z,3.48
2023-03-03T01:05:58.562Z,3.55
2023-03-03T01:08:29.062Z,3.56
2023-03-03T01:11:03.251Z,3.56
2023-03-03T01:13:38.005Z,3.59
2023-03-03T01:16:10.185Z,3.58
2023-03-03T01:18:43.348Z,3.64
2023-03-03T01:21:14.533Z,3.65
2023-03-03T01:23:44.899Z,3.66
2023-03-03T01:26:15.272Z,3.65
2023-03-03T01:28:45.720Z,3.65
2023-03-03T01:31:16.109Z,3.66
2023-03-03T01:33:49.082Z,3.68
2023-03-03T01:36:19.390Z,3.69
2023-03-03T01:38:49.722Z,3.66
2023-03-03T01:41:20.386Z,3.66
2023-03-03T01:43:54.291Z,3.65
2023-03-03T01:46:53.209Z,3.67
2023-03-03T01:49:30.991Z,3.68
2023-03-03T01:52:04.921Z,3.66
2023-03-03T01:54:46.688Z,3.63
2023-03-03T01:57:26.036Z,3.62
2023-03-03T02:00:01.089Z,3.62
2023-03-03T02:02:33.092Z,3.66
2023-03-03T02:05:06.401Z,3.61
2023-03-03T02:07:37.191Z,3.55
2023-03-03T02:10:14.087Z,3.47
2023-03-03T02:12:48.816Z,3.51
2023-03-03T02:15:29.858Z,3.52
2023-03-03T02:18:03.902Z,3.51
2023-03-03T02:20:49.989Z,3.47
2023-03-03T02:23:29.291Z,3.43
2023-03-03T02:26:13.379Z,3.27
2023-03-03T02:28:45.077Z,3.13
2023-03-03T02:31:21.602Z,3.15
2023-03-03T02:33:54.934Z,3.17
2023-03-03T02:36:27.672Z,3.16
2023-03-03T02:39:07.492Z,3.05
2023-03-03T02:41:46.656Z,3.00
2023-03-03T02:44:20.987Z,2.92
2023-03-03T02:46:53.875Z,2.87
2023-03-03T02:49:27.937Z,2.79
2023-03-03T02:51:59.165Z,2.79
2023-03-03T02:54:32.749Z,2.78
2023-03-03T02:57:09.181Z,2.76
2023-03-03T02:59:39.554Z,2.82
2023-03-03T03:02:16.257Z,2.89
2023-03-03T03:04:46.693Z,2.94
2023-03-03T03:07:21.653Z,2.91
2023-03-03T03:09:52.180Z,2.93
2023-03-03T03:12:25.169Z,2.96
2023-03-03T03:14:58.792Z,3.01
2023-03-03T03:17:29.726Z,3.03
2023-03-03T03:20:02.504Z,3.06
2023-03-03T03:22:34.032Z,3.10
2023-03-03T03:25:04.418Z,3.13
2023-03-03T03:27:38.080Z,3.03
2023-03-03T03:30:10.575Z,2.79
2023-03-03T03:32:40.912Z,2.67
2023-03-03T03:35:13.627Z,2.73
2023-03-03T03:37:43.969Z,2.78
2023-03-03T03:40:16.096Z,2.85
2023-03-03T03:42:49.060Z,2.89
2023-03-03T03:45:19.749Z,2.92
2023-03-03T03:47:50.976Z,2.88
2023-03-03T03:50:22.521Z,2.96
2023-03-03T03:52:53.097Z,2.98
2023-03-03T03:55:23.799Z,2.98
2023-03-03T03:57:58.083Z,2.91
2023-03-03T04:00:29.997Z,2.82
2023-03-03T04:03:03.188Z,2.72
2023-03-03T04:05:33.706Z,2.66
2023-03-03T04:08:04.794Z,2.66
2023-03-03T04:10:35.487Z,2.60
2023-03-03T04:13:10.195Z,2.54
2023-03-03T04:15:40.635Z,2.53
2023-03-03T04:18:13.502Z,2.53
2023-03-03T04:20:45.156Z,2.50
2023-03-03T04:23:15.731Z,2.50
2023-03-03T04:25:46.487Z,2.48
2023-03-03T04:28:22.109Z,2.45
2023-03-03T04:30:53.797Z,2.47
2023-03-03T04:33:25.514Z,2.45
2023-03-03T04:35:55.993Z,2.49
2023-03-03T04:38:26.956Z,2.46
2023-03-03T04:40:59.667Z,2.49
2023-03-03T04:43:35.307Z,2.51
2023-03-03T04:46:07.024Z,2.58
2023-03-03T04:48:41.870Z,2.58
2023-03-03T04:51:13.588Z,2.56
2023-03-03T04:53:45.657Z,2.53
2023-03-03T04:56:17.117Z,2.54
2023-03-03T04:58:50.084Z,2.57
2023-03-03T05:01:21.011Z,2.58
2023-03-03T05:03:51.399Z,2.47
2023-03-03T05:06:22.025Z,2.44
2023-03-03T05:08:52.384Z,2.37
2023-03-03T05:11:22.759Z,2.40
2023-03-03T05:13:56.337Z,2.45
2023-03-03T05:16:26.722Z,2.47
2023-03-03T05:18:56.979Z,2.47
2023-03-03T05:21:27.557Z,2.52
2023-03-03T05:23:58.007Z,2.52
2023-03-03T05:26:28.419Z,2.54
2023-03-03T05:29:01.382Z,2.59
2023-03-03T05:31:31.829Z,2.64
2023-03-03T05:34:02.449Z,2.61
2023-03-03T05:36:33.985Z,2.58
2023-03-03T05:39:04.383Z,2.56
2023-03-03T05:41:37.098Z,2.54
2023-03-03T05:44:10.339Z,2.52
2023-03-03T05:46:40.760Z,2.47
2023-03-03T05:49:11.376Z,2.49
2023-03-03T05:51:41.844Z,2.46
2023-03-03T05:54:12.483Z,2.43
2023-03-03T05:56:42.941Z,2.39
2023-03-03T05:59:16.094Z,2.34
2023-03-03T06:01:48.425Z,2.34
2023-03-03T06:04:18.836Z,2.37
2023-03-03T06:06:49.736Z,2.39
2023-03-03T06:09:21.324Z,2.41
2023-03-03T06:11:52.997Z,2.45
2023-03-03T06:14:27.272Z,2.49
2023-03-03T06:17:00.769Z,2.48
2023-03-03T06:19:31.022Z,2.51
2023-03-03T06:22:01.329Z,2.56
2023-03-03T06:24:32.387Z,2.53
2023-03-03T06:27:03.979Z,2.46
2023-03-03T06:29:37.014Z,2.42
2023-03-03T06:32:07.874Z,2.46
2023-03-03T06:34:38.626Z,2.51
2023-03-03T06:37:09.076Z,2.54
2023-03-03T06:39:41.502Z,2.51
2023-03-03T06:42:12.369Z,2.45
2023-03-03T06:44:45.477Z,2.47
2023-03-03T06:47:19.230Z,2.54
2023-03-03T06:49:49.526Z,2.52
2023-03-03T06:52:25.285Z,2.49
2023-03-03T06:54:59.211Z,2.45
2023-03-03T06:57:32.538Z,2.48
2023-03-03T07:00:20.480Z,2.17
2023-03-03T07:02:51.351Z,2.18
2023-03-03T07:05:22.142Z,2.31
2023-03-03T07:07:52.774Z,2.38
2023-03-03T07:10:28.057Z,2.45
2023-03-03T07:13:12.308Z,2.39
2023-03-03T07:15:45.768Z,2.37
2023-03-03T07:18:37.347Z,2.38
2023-03-03T07:21:22.736Z,2.48
2023-03-03T07:23:55.485Z,2.54
2023-03-03T07:26:30.979Z,2.65
2023-03-03T07:29:04.424Z,2.64
2023-03-03T07:31:40.479Z,2.66
2023-03-03T07:34:24.401Z,2.69
2023-03-03T07:36:59.746Z,2.59
2023-03-03T07:39:40.426Z,2.64
2023-03-03T07:42:27.844Z,2.69
2023-03-03T07:45:31.174Z,2.74
2023-03-03T07:48:18.139Z,2.75
2023-03-03T07:50:50.072Z,2.74
2023-03-03T07:53:31.578Z,2.68
2023-03-03T07:56:05.039Z,2.71
2023-03-03T07:58:42.393Z,2.69
2023-03-03T08:01:43.764Z,2.71
2023-03-03T08:04:29.779Z,2.75
2023-03-03T08:07:02.456Z,2.82
2023-03-03T08:09:55.623Z,2.74
2023-03-03T08:12:47.431Z,2.66
2023-03-03T08:15:27.110Z,2.66
2023-03-03T08:17:59.201Z,2.71
2023-03-03T08:20:58.313Z,2.64
2023-03-03T08:23:28.710Z,2.69
2023-03-03T08:25:59.091Z,2.73
2023-03-03T08:28:29.713Z,2.77
2023-03-03T08:31:15.379Z,2.74
2023-03-03T08:33:47.536Z,2.73
2023-03-03T08:36:20.676Z,2.82
2023-03-03T08:38:51.070Z,2.87
2023-03-03T08:41:21.340Z,2.83
2023-03-03T08:43:51.834Z,2.79
2023-03-03T08:46:27.254Z,2.75
2023-03-03T08:48:57.757Z,2.82
2023-03-03T08:51:34.380Z,2.79
2023-03-03T08:54:04.883Z,2.77
2023-03-03T08:56:35.240Z,2.71
2023-03-03T08:59:05.700Z,2.72
2023-03-03T09:01:38.051Z,2.71
2023-03-03T09:04:08.515Z,2.67
2023-03-03T09:06:41.600Z,2.69
2023-03-03T09:09:11.908Z,2.73
2023-03-03T09:11:43.643Z,2.72
2023-03-03T09:14:16.862Z,2.83
2023-03-03T09:16:54.523Z,2.91
2023-03-03T09:19:29.631Z,2.94
2023-03-03T09:22:14.866Z,2.96
2023-03-03T09:24:45.917Z,2.97
2023-03-03T09:27:22.625Z,3.05
2023-03-03T09:29:52.982Z,3.05
2023-03-03T09:32:39.281Z,3.05
2023-03-03T09:35:39.212Z,2.93
2023-03-03T09:38:30.481Z,2.99
2023-03-03T09:41:30.139Z,3.05
2023-03-03T09:44:42.956Z,3.01
2023-03-03T09:47:42.076Z,2.99
2023-03-03T09:50:29.519Z,2.98
2023-03-03T09:53:19.962Z,3.08
2023-03-03T09:55:59.455Z,3.03
2023-03-03T09:59:00.314Z,3.05
2023-03-03T10:01:55.576Z,2.95
2023-03-03T10:05:19.348Z,3.01
2023-03-03T10:08:11.536Z,3.05
2023-03-03T10:10:56.745Z,3.08
2023-03-03T10:13:49.810Z,3.08
2023-03-03T10:16:45.354Z,3.12
2023-03-03T10:19:36.997Z,3.25
2023-03-03T10:22:27.493Z,3.23
2023-03-03T10:25:16.632Z,3.22
2023-03-03T10:28:19.438Z,3.35
2023-03-03T10:31:07.612Z,3.37
2023-03-03T10:33:50.939Z,3.36
2023-03-03T10:36:48.946Z,3.44
2023-03-03T10:39:45.765Z,3.44
2023-03-03T10:42:48.385Z,3.39
2023-03-03T10:45:56.957Z,3.35
2023-03-03T10:48:49.451Z,3.37
2023-03-03T10:51:31.085Z,3.38
2023-03-03T10:54:18.251Z,3.40
2023-03-03T10:56:59.958Z,3.46
2023-03-03T11:00:04.529Z,3.53
2023-03-03T11:02:53.625Z,3.54
2023-03-03T11:05:37.451Z,3.57
2023-03-03T11:08:14.437Z,3.69
2023-03-03T11:10:57.673Z,3.68
2023-03-03T11:13:39.664Z,3.69
2023-03-03T11:16:25.662Z,3.68
2023-03-03T11:19:24.634Z,3.79
2023-03-03T11:22:05.911Z,3.83
2023-03-03T11:24:50.593Z,3.83
2023-03-03T11:28:10.074Z,3.79
2023-03-03T11:31:01.618Z,3.87
2023-03-03T11:33:45.155Z,3.87
2023-03-03T11:36:24.188Z,3.76
2023-03-03T11:39:02.478Z,3.73
2023-03-03T11:41:41.318Z,3.66
2023-03-03T11:44:25.903Z,3.58
2023-03-03T11:47:02.361Z,3.58
2023-03-03T11:49:40.714Z,3.58
2023-03-03T11:52:28.949Z,3.55
2023-03-03T11:55:08.014Z,3.52
2023-03-03T11:57:46.426Z,3.49
2023-03-03T12:00:32.365Z,3.55
2023-03-03T12:03:19.915Z,3.56
2023-03-03T12:06:01.522Z,3.65
2023-03-03T12:08:50.117Z,3.71
2023-03-03T12:11:28.963Z,3.78
2023-03-03T12:14:06.674Z,3.86
2023-03-03T12:16:48.447Z,3.86
2023-03-03T12:19:46.419Z,3.81
2023-03-03T12:22:47.186Z,3.79
2023-03-03T12:25:32.893Z,3.80
2023-03-03T12:28:12.219Z,3.71
2023-03-03T12:31:02.919Z,3.66
2023-03-03T12:33:54.457Z,3.72
2023-03-03T12:36:48.362Z,3.75
2023-03-03T12:39:35.445Z,3.65
2023-03-03T12:42:23.580Z,3.61
2023-03-03T12:45:05.780Z,3.61
2023-03-03T12:47:42.473Z,3.62
2023-03-03T12:50:34.147Z,3.65
2023-03-03T12:53:17.013Z,3.54
2023-03-03T12:55:57.060Z,3.33
2023-03-03T12:58:45.152Z,3.34
2023-03-03T13:01:33.207Z,3.35
2023-03-03T13:04:13.072Z,3.39
2023-03-03T13:06:50.692Z,3.41
2023-03-03T13:09:38.558Z,3.35
2023-03-03T13:12:33.918Z,3.34
2023-03-03T13:15:32.158Z,3.38
2023-03-03T13:18:22.876Z,3.26
2023-03-03T13:20:58.883Z,3.37
2023-03-03T13:23:44.959Z,3.16
2023-03-03T13:26:24.082Z,3.23
2023-03-03T13:29:14.294Z,3.38
2023-03-03T13:31:51.576Z,3.25
2023-03-03T13:34:40.472Z,3.32
2023-03-03T13:37:23.861Z,3.23
2023-03-03T13:40:03.649Z,3.37
2023-03-03T13:42:42.844Z,3.45
2023-03-03T13:45:27.615Z,3.53
2023-03-03T13:48:12.103Z,3.47
2023-03-03T13:50:50.458Z,3.39
2023-03-03T13:53:45.299Z,3.32
2023-03-03T13:56:35.912Z,3.38
2023-03-03T13:59:18.422Z,3.35
2023-03-03T14:02:01.157Z,3.35
2023-03-03T14:04:50.006Z,3.31
2023-03-03T14:07:29.435Z,3.23
2023-03-03T14:10:06.841Z,3.22
2023-03-03T14:12:47.514Z,3.11
2023-03-03T14:15:26.931Z,3.22
2023-03-03T14:18:19.856Z,3.20
2023-03-03T14:20:55.998Z,3.07
2023-03-03T14:23:34.123Z,3.12
2023-03-03T14:26:12.957Z,3.24
2023-03-03T14:28:46.679Z,3.27
2023-03-03T14:31:26.558Z,3.26
2023-03-03T14:34:04.622Z,3.11
2023-03-03T14:36:43.880Z,3.13
2023-03-03T14:39:35.930Z,3.13
2023-03-03T14:42:15.779Z,3.18
2023-03-03T14:44:59.449Z,3.16
2023-03-03T14:47:30.678Z,3.08
2023-03-03T14:50:03.720Z,2.75
2023-03-03T14:52:37.969Z,2.89
2023-03-03T14:55:37.096Z,2.88
2023-03-03T14:58:10.413Z,2.69
2023-03-03T15:00:40.823Z,2.80
2023-03-03T15:03:25.472Z,2.91
2023-03-03T15:05:58.865Z,2.91
2023-03-03T15:08:37.248Z,2.95
2023-03-03T15:11:24.958Z,3.06
2023-03-03T15:13:55.422Z,3.08
2023-03-03T15:16:27.705Z,2.98
2023-03-03T15:19:43.649Z,2.97
2023-03-03T15:22:25.253Z,2.85
2023-03-03T15:25:06.777Z,2.73
2023-03-03T15:27:44.183Z,2.44
2023-03-03T15:30:27.227Z,2.36
2023-03-03T15:33:07.415Z,2.25
2023-03-03T15:35:53.550Z,2.23
2023-03-03T15:38:38.702Z,2.27
2023-03-03T15:41:25.910Z,2.41
2023-03-03T15:44:17.215Z,2.58
2023-03-03T15:47:21.331Z,2.69
2023-03-03T15:50:10.783Z,2.73
2023-03-03T15:52:54.006Z,2.77
2023-03-03T15:55:38.593Z,2.76
2023-03-03T15:58:57.309Z,2.76
2023-03-03T16:01:32.923Z,2.71
2023-03-03T16:04:08.172Z,2.42
2023-03-03T16:06:50.555Z,2.24
2023-03-03T16:09:35.173Z,2.30
2023-03-03T16:12:17.242Z,2.27
2023-03-03T16:15:19.952Z,2.35
2023-03-03T16:18:01.809Z,2.32
2023-03-03T16:20:43.330Z,2.39
2023-03-03T16:23:33.681Z,2.40
2023-03-03T16:26:20.293Z,2.47
2023-03-03T16:29:05.755Z,2.26
2023-03-03T16:31:47.957Z,2.04
2023-03-03T16:34:27.533Z,1.90
2023-03-03T16:37:07.893Z,1.94
2023-03-03T16:39:54.199Z,1.95
2023-03-03T16:42:30.954Z,1.88
2023-03-03T16:45:26.007Z,1.83
2023-03-03T16:48:16.701Z,1.82
2023-03-03T16:50:57.268Z,1.85
2023-03-03T16:53:52.005Z,1.93
2023-03-03T16:56:26.275Z,1.76
2023-03-03T16:59:45.381Z,1.75
2023-03-03T17:02:44.745Z,1.77
2023-03-03T17:05:32.799Z,1.64
2023-03-03T17:08:43.991Z,1.66
2023-03-03T17:11:24.469Z,1.60
2023-03-03T17:14:24.038Z,1.68
2023-03-03T17:17:01.588Z,1.45
2023-03-03T17:19:47.478Z,1.48
2023-03-03T17:22:28.440Z,1.53
2023-03-03T17:25:11.326Z,1.59
2023-03-03T17:28:03.361Z,1.71
2023-03-03T17:30:44.784Z,1.59
2023-03-03T17:33:28.676Z,1.50
2023-03-03T17:36:18.386Z,1.67
2023-03-03T17:39:10.136Z,1.68
2023-03-03T17:41:48.006Z,1.68
2023-03-03T17:44:27.436Z,1.74
2023-03-03T17:47:03.174Z,1.70
2023-03-03T17:50:11.000Z,1.70
2023-03-03T17:53:20.369Z,1.72
2023-03-03T17:56:16.678Z,1.77
2023-03-03T17:59:38.486Z,1.73
2023-03-03T18:02:32.381Z,1.53
2023-03-03T18:05:46.724Z,1.33
2023-03-03T18:08:39.319Z,1.21
2023-03-03T18:11:42.777Z,1.32
2023-03-03T18:15:17.263Z,1.40
2023-03-03T18:18:04.372Z,1.55
2023-03-03T18:20:50.090Z,1.43
2023-03-03T18:23:35.624Z,1.59
2023-03-03T18:26:27.996Z,1.44
2023-03-03T18:29:20.563Z,1.46
2023-03-03T18:32:22.479Z,1.47
2023-03-03T18:35:32.535Z,1.51
2023-03-03T18:38:35.920Z,1.53
2023-03-03T18:41:08.278Z,1.47
2023-03-03T18:44:01.757Z,1.45
2023-03-03T18:46:52.376Z,1.27
2023-03-03T18:50:01.011Z,1.29
2023-03-03T18:52:33.093Z,1.21
2023-03-03T18:55:28.353Z,1.23
2023-03-03T18:58:35.777Z,1.28
2023-03-03T19:01:44.581Z,1.49
2023-03-03T19:04:27.108Z,1.50
2023-03-03T19:07:26.569Z,1.46
2023-03-03T19:10:02.932Z,1.50
2023-03-03T19:12:57.911Z,1.60
2023-03-03T19:16:01.496Z,1.56
2023-03-03T19:18:36.448Z,1.63
2023-03-03T19:21:10.494Z,1.72
2023-03-03T19:23:54.500Z,1.69
2023-03-03T19:26:48.370Z,1.57
2023-03-03T19:29:41.678Z,1.60
2023-03-03T19:32:32.576Z,1.57
2023-03-03T19:35:23.305Z,1.50
2023-03-03T19:38:08.950Z,1.48
2023-03-03T19:40:48.919Z,1.49
2023-03-03T19:43:36.245Z,1.45
2023-03-03T19:46:30.130Z,1.49
2023-03-03T19:49:11.855Z,1.49
2023-03-03T19:51:55.611Z,1.67
2023-03-03T19:54:51.304Z,1.64
2023-03-03T19:57:38.511Z,1.63
2023-03-03T20:00:20.473Z,1.77
2023-03-03T20:03:18.496Z,1.74
2023-03-03T20:05:54.626Z,1.71
2023-03-03T20:08:37.045Z,1.61
2023-03-03T20:11:15.490Z,1.60
2023-03-03T20:13:57.030Z,1.52
2023-03-03T20:16:41.544Z,1.47
2023-03-03T20:19:32.058Z,1.59
2023-03-03T20:22:12.415Z,1.67
2023-03-03T20:25:10.555Z,1.72
2023-03-03T20:27:53.793Z,1.64
2023-03-03T20:30:38.876Z,1.56
2023-03-03T20:33:34.146Z,1.65
2023-03-03T20:36:16.836Z,1.70
2023-03-03T20:39:04.424Z,1.61
2023-03-03T20:41:56.526Z,1.72
2023-03-03T20:44:43.519Z,1.77
2023-03-03T20:47:24.002Z,1.69
2023-03-03T20:50:15.670Z,1.65
2023-03-03T20:53:03.779Z,1.55
2023-03-03T20:55:49.896Z,1.62
2023-03-03T20:58:30.566Z,1.72
2023-03-03T21:01:09.186Z,1.65
2023-03-03T21:03:43.276Z,1.56
2023-03-03T21:06:18.039Z,1.60
2023-03-03T21:08:54.381Z,1.66
2023-03-03T21:11:27.732Z,1.71
2023-03-03T21:14:02.583Z,1.70
2023-03-03T21:16:36.778Z,1.67
2023-03-03T21:19:10.147Z,1.63
2023-03-03T21:21:43.148Z,1.57
2023-03-03T21:24:19.970Z,1.62
2023-03-03T21:26:55.237Z,1.84
2023-03-03T21:29:31.484Z,1.80
2023-03-03T21:32:04.143Z,1.84
2023-03-03T21:34:36.429Z,1.86
2023-03-03T21:37:08.652Z,1.63
2023-03-03T21:39:41.614Z,1.54
2023-03-03T21:42:14.668Z,1.47
2023-03-03T21:44:49.831Z,1.41
2023-03-03T21:47:22.782Z,1.44
2023-03-03T21:49:55.222Z,1.56
2023-03-03T21:52:26.013Z,1.49
2023-03-03T21:54:56.400Z,1.38
2023-03-03T21:57:27.011Z,1.38
2023-03-03T22:00:00.198Z,1.36
2023-03-03T22:02:30.864Z,1.42
2023-03-03T22:05:03.281Z,1.43
2023-03-03T22:07:33.604Z,1.37
2023-03-03T22:10:04.023Z,1.33
2023-03-03T22:12:34.275Z,1.39
2023-03-03T22:15:08.558Z,1.49
2023-03-03T22:17:40.791Z,1.62
2023-03-03T22:20:14.790Z,1.63
2023-03-03T22:22:45.332Z,1.66
2023-03-03T22:25:15.709Z,1.53
2023-03-03T22:27:46.002Z,1.60
2023-03-03T22:30:20.034Z,1.56
2023-03-03T22:32:52.413Z,1.53
2023-03-03T22:35:22.694Z,1.44
2023-03-03T22:37:53.158Z,1.42
2023-03-03T22:40:23.755Z,1.56
2023-03-03T22:42:54.178Z,1.56
2023-03-03T22:45:27.234Z,1.63
2023-03-03T22:47:57.577Z,1.55
2023-03-03T22:50:28.365Z,1.49
2023-03-03T22:52:58.668Z,1.49
2023-03-03T22:55:29.407Z,1.59
2023-03-03T22:57:59.780Z,1.56
2023-03-03T23:00:33.000Z,1.48
2023-03-03T23:03:03.588Z,1.32
2023-03-03T23:05:34.119Z,1.32
2023-03-03T23:08:04.806Z,1.36
2023-03-03T23:10:35.830Z,1.30
2023-03-03T23:13:06.648Z,1.22
2023-03-03T23:15:40.068Z,1.23
2023-03-03T23:18:10.657Z,1.38
2023-03-03T23:20:45.862Z,1.46
2023-03-03T23:23:16.379Z,1.58
2023-03-03T23:25:46.690Z,1.71
2023-03-03T23:28:17.213Z,1.62
2023-03-03T23:30:52.082Z,1.60
2023-03-03T23:33:23.646Z,1.46
2023-03-03T23:35:53.773Z,1.39
2023-03-03T23:38:24.109Z,1.42
2023-03-03T23:40:54.499Z,1.39
2023-03-03T23:43:24.825Z,1.42
2023-03-03T23:45:57.770Z,1.41
2023-03-03T23:48:28.151Z,1.37
2023-03-03T23:50:58.555Z,1.35
2023-03-03T23:53:29.089Z,1.32
2023-03-03T23:55:59.449Z,1.37
2023-03-03T23:58:29.691Z,1.31
